createdAt,value
2018-03-24T00:02:23.431Z,90.90
2018-03-24T00:04:50.879Z,90.80
2018-03-24T00:07:18.439Z,90.80
2018-03-24T00:09:45.883Z,90.90
2018-03-24T00:12:14.107Z,90.90
2018-03-24T00:14:41.581Z,90.80
2018-03-24T00:17:09.005Z,90.80
2018-03-24T00:19:36.554Z,90.90
2018-03-24T00:22:04.009Z,90.80
2018-03-24T00:24:31.484Z,90.90
2018-03-24T00:26:58.930Z,90.90
2018-03-24T00:29:26.382Z,90.80
2018-03-24T00:31:53.837Z,90.90
2018-03-24T00:34:21.311Z,90.90
2018-03-24T00:36:48.754Z,90.90
2018-03-24T00:39:16.223Z,90.90
2018-03-24T00:41:43.690Z,90.90
2018-03-24T00:44:11.142Z,90.90
2018-03-24T00:46:38.610Z,90.90
2018-03-24T00:49:06.046Z,90.80
2018-03-24T00:51:33.490Z,90.80
2018-03-24T00:54:00.927Z,90.80
2018-03-24T00:56:28.431Z,90.90
2018-03-24T00:58:55.869Z,90.90
2018-03-24T01:01:23.298Z,90.90
2018-03-24T01:03:50.745Z,90.80
2018-03-24T01:06:18.233Z,90.90
2018-03-24T01:08:45.666Z,90.80
2018-03-24T01:11:13.865Z,91.10
2018-03-24T01:13:41.344Z,90.80
2018-03-24T01:16:08.806Z,90.80
2018-03-24T01:18:36.250Z,90.80
2018-03-24T01:21:03.703Z,90.80
2018-03-24T01:23:31.151Z,90.80
2018-03-24T01:25:58.583Z,90.70
2018-03-24T01:28:26.066Z,90.70
2018-03-24T01:30:53.522Z,90.80
2018-03-24T01:33:20.986Z,90.80
2018-03-24T01:35:48.438Z,90.80
2018-03-24T01:38:15.895Z,90.80
2018-03-24T01:40:43.378Z,90.80
2018-03-24T01:43:10.809Z,90.90
2018-03-24T01:45:38.287Z,90.80
2018-03-24T01:48:05.723Z,90.80
2018-03-24T01:50:33.190Z,90.80
2018-03-24T01:53:00.644Z,90.80
2018-03-24T01:55:28.070Z,90.80
2018-03-24T01:57:55.518Z,90.90
2018-03-24T02:00:22.952Z,90.80
2018-03-24T02:02:50.398Z,90.90
2018-03-24T02:05:17.842Z,90.90
2018-03-24T02:07:45.314Z,90.90
2018-03-24T02:10:12.754Z,90.90
2018-03-24T02:12:40.218Z,90.90
2018-03-24T02:15:07.658Z,90.90
2018-03-24T02:17:35.110Z,90.90
2018-03-24T02:20:02.568Z,90.90
2018-03-24T02:22:30.023Z,90.90
2018-03-24T02:24:57.480Z,90.90
2018-03-24T02:27:24.937Z,90.80
2018-03-24T02:29:52.398Z,90.90
2018-03-24T02:32:19.880Z,90.90
2018-03-24T02:34:47.331Z,90.90
2018-03-24T02:37:14.780Z,90.90
2018-03-24T02:39:42.223Z,90.90
2018-03-24T02:42:09.683Z,90.90
2018-03-24T02:44:37.108Z,91.00
2018-03-24T02:47:04.566Z,91.00
2018-03-24T02:49:31.991Z,91.00
2018-03-24T02:52:00.215Z,91.00
2018-03-24T02:54:27.685Z,91.00
2018-03-24T02:56:55.137Z,91.10
2018-03-24T02:59:23.355Z,91.10
2018-03-24T03:01:51.594Z,91.10
2018-03-24T03:04:19.029Z,91.10
2018-03-24T03:06:46.485Z,91.20
2018-03-24T03:09:13.955Z,91.20
2018-03-24T03:11:41.383Z,91.20
2018-03-24T03:14:08.870Z,91.20
2018-03-24T03:16:36.342Z,91.20
2018-03-24T03:19:03.813Z,91.10
2018-03-24T03:24:31.457Z,91.20
2018-03-24T03:26:59.011Z,91.10
2018-03-24T03:29:26.633Z,91.10
2018-03-24T03:34:52.489Z,91.10
2018-03-24T03:37:20.747Z,91.10
2018-03-24T03:39:48.197Z,91.10
2018-03-24T03:42:15.664Z,91.10
2018-03-24T03:44:43.125Z,91.00
2018-03-24T03:47:10.586Z,91.10
2018-03-24T03:49:38.083Z,91.10
2018-03-24T03:52:05.538Z,91.10
2018-03-24T03:54:32.992Z,91.10
2018-03-24T03:57:00.490Z,91.10
2018-03-24T03:59:27.934Z,91.00
2018-03-24T04:01:55.414Z,91.00
2018-03-24T04:04:22.897Z,91.00
2018-03-24T04:06:50.367Z,91.00
2018-03-24T04:09:18.036Z,91.00
2018-03-24T04:11:45.529Z,91.00
2018-03-24T04:14:13.018Z,91.00
2018-03-24T04:16:41.266Z,91.10
2018-03-24T04:19:08.752Z,91.10
2018-03-24T04:21:36.241Z,91.10
2018-03-24T04:24:03.697Z,91.10
2018-03-24T04:26:31.193Z,91.10
2018-03-24T04:28:58.676Z,91.10
2018-03-24T04:31:26.979Z,91.10
2018-03-24T04:33:54.438Z,91.10
2018-03-24T04:36:21.910Z,91.20
2018-03-24T04:38:49.385Z,91.20
2018-03-24T04:41:17.022Z,91.20
2018-03-24T04:43:44.553Z,91.20
2018-03-24T04:46:12.091Z,91.20
2018-03-24T04:48:39.537Z,91.20
2018-03-24T04:51:07.023Z,91.20
2018-03-24T04:53:35.233Z,91.20
2018-03-24T04:56:02.722Z,91.20
2018-03-24T04:58:30.295Z,91.20
2018-03-24T05:00:57.769Z,91.20
2018-03-24T05:03:25.243Z,91.20
2018-03-24T05:05:52.738Z,91.20
2018-03-24T05:08:20.176Z,91.20
2018-03-24T05:10:47.673Z,91.20
2018-03-24T05:13:15.158Z,91.20
2018-03-24T05:15:43.389Z,91.20
2018-03-24T05:18:10.847Z,91.20
2018-03-24T05:20:38.366Z,91.20
2018-03-24T05:23:05.823Z,91.20
2018-03-24T05:25:33.297Z,91.20
2018-03-24T05:28:00.801Z,91.20
2018-03-24T05:30:28.257Z,91.20
2018-03-24T05:32:55.767Z,91.20
2018-03-24T05:35:23.233Z,91.20
2018-03-24T05:37:50.685Z,91.20
2018-03-24T05:40:18.167Z,91.20
2018-03-24T05:42:45.646Z,91.20
2018-03-24T05:45:13.142Z,91.20
2018-03-24T05:47:40.613Z,91.20
2018-03-24T05:50:08.097Z,91.20
2018-03-24T05:52:35.553Z,91.20
2018-03-24T05:55:03.775Z,91.20
2018-03-24T05:57:31.259Z,91.20
2018-03-24T05:59:58.706Z,91.20
2018-03-24T06:02:26.178Z,91.20
2018-03-24T06:04:53.652Z,91.20
2018-03-24T06:07:21.093Z,91.10
2018-03-24T06:09:48.573Z,91.10
2018-03-24T06:12:16.038Z,91.30
2018-03-24T06:14:43.514Z,91.00
2018-03-24T06:17:10.998Z,91.00
2018-03-24T06:19:39.215Z,91.00
2018-03-24T06:22:06.719Z,91.00
2018-03-24T06:24:34.166Z,91.10
2018-03-24T06:27:01.645Z,91.00
2018-03-24T06:29:29.852Z,91.00
2018-03-24T06:31:57.790Z,91.00
2018-03-24T06:34:25.258Z,90.90
2018-03-24T06:37:08.396Z,90.90
2018-03-24T06:39:35.885Z,90.90
2018-03-24T06:42:03.342Z,90.90
2018-03-24T06:44:30.830Z,90.90
2018-03-24T06:46:59.073Z,90.90
2018-03-24T06:49:26.540Z,90.90
2018-03-24T06:51:54.009Z,90.90
2018-03-24T06:54:22.231Z,90.90
2018-03-24T06:56:49.706Z,90.90
2018-03-24T06:59:17.201Z,90.90
2018-03-24T07:01:44.662Z,90.80
2018-03-24T07:04:12.151Z,90.80
2018-03-24T07:06:39.601Z,90.90
2018-03-24T07:09:07.078Z,90.90
2018-03-24T07:11:34.562Z,90.80
2018-03-24T07:14:02.027Z,90.70
2018-03-24T07:16:29.478Z,90.70
2018-03-24T07:18:56.962Z,90.70
2018-03-24T07:21:25.220Z,90.70
2018-03-24T07:23:52.670Z,90.70
2018-03-24T07:26:20.125Z,90.70
2018-03-24T07:28:47.626Z,90.40
2018-03-24T07:31:15.919Z,90.40
2018-03-24T07:33:43.341Z,90.40
2018-03-24T07:36:11.590Z,90.30
2018-03-24T07:38:39.038Z,90.20
2018-03-24T07:41:06.513Z,90.30
2018-03-24T07:43:33.976Z,90.20
2018-03-24T07:46:01.474Z,90.10
2018-03-24T07:48:28.929Z,90.10
2018-03-24T07:50:56.385Z,90.10
2018-03-24T07:53:23.864Z,90.10
2018-03-24T07:55:51.325Z,90.00
2018-03-24T07:58:18.810Z,90.00
2018-03-24T08:00:46.250Z,90.00
2018-03-24T08:03:13.721Z,90.00
2018-03-24T08:05:41.189Z,89.60
2018-03-24T08:08:08.674Z,89.80
2018-03-24T08:10:36.918Z,89.70
2018-03-24T08:13:04.378Z,89.70
2018-03-24T08:15:31.866Z,89.20
2018-03-24T08:18:00.082Z,89.20
2018-03-24T08:20:27.559Z,89.20
2018-03-24T08:22:55.051Z,89.30
2018-03-24T08:25:23.278Z,89.00
2018-03-24T08:27:50.728Z,89.00
2018-03-24T08:30:18.207Z,88.90
2018-03-24T08:32:45.667Z,89.00
2018-03-24T08:35:13.154Z,88.30
2018-03-24T08:37:41.365Z,88.30
2018-03-24T08:40:08.840Z,88.30
2018-03-24T08:42:36.341Z,88.10
2018-03-24T08:45:03.802Z,88.10
2018-03-24T08:47:31.286Z,87.90
2018-03-24T08:49:58.750Z,88.00
2018-03-24T08:52:26.239Z,87.80
2018-03-24T08:54:53.682Z,87.50
2018-03-24T08:57:21.167Z,87.60
2018-03-24T08:59:49.414Z,87.20
2018-03-24T09:02:16.862Z,87.30
2018-03-24T09:04:44.354Z,87.40
2018-03-24T09:07:11.832Z,86.80
2018-03-24T09:09:40.077Z,86.90
2018-03-24T09:12:07.557Z,86.90
2018-03-24T09:14:35.808Z,85.40
2018-03-24T09:17:03.262Z,85.40
2018-03-24T09:19:30.713Z,85.60
2018-03-24T09:21:58.190Z,85.60
2018-03-24T09:24:25.676Z,84.90
2018-03-24T09:26:53.366Z,84.70
2018-03-24T09:29:20.938Z,84.60
2018-03-24T09:31:48.428Z,84.70
2018-03-24T09:34:15.880Z,85.10
2018-03-24T09:36:43.331Z,84.60
2018-03-24T09:39:10.812Z,84.10
2018-03-24T09:41:38.287Z,83.90
2018-03-24T09:44:05.773Z,83.90
2018-03-24T09:46:33.252Z,83.00
2018-03-24T09:49:01.253Z,83.10
2018-03-24T09:51:29.566Z,82.20
2018-03-24T09:53:57.034Z,82.20
2018-03-24T09:56:24.494Z,82.50
2018-03-24T09:58:51.989Z,83.00
2018-03-24T10:01:19.456Z,82.50
2018-03-24T10:03:47.684Z,83.40
2018-03-24T10:06:15.154Z,83.00
2018-03-24T10:08:42.637Z,82.50
2018-03-24T10:11:10.888Z,82.60
2018-03-24T10:13:38.420Z,81.80
2018-03-24T10:16:05.896Z,81.60
2018-03-24T10:18:33.342Z,81.50
2018-03-24T10:24:09.038Z,79.20
2018-03-24T10:26:36.495Z,81.10
2018-03-24T10:29:03.946Z,80.90
2018-03-24T10:31:31.431Z,81.60
2018-03-24T10:34:01.744Z,80.70
2018-03-24T10:36:29.204Z,80.50
2018-03-24T10:38:56.677Z,80.70
2018-03-24T10:41:24.210Z,80.90
2018-03-24T10:43:51.670Z,79.80
2018-03-24T10:46:19.137Z,80.20
2018-03-24T10:48:46.594Z,79.60
2018-03-24T10:51:14.098Z,79.60
2018-03-24T10:53:41.565Z,79.70
2018-03-24T10:56:09.079Z,79.80
2018-03-24T10:58:36.572Z,79.70
2018-03-24T11:04:03.231Z,77.90
2018-03-24T11:06:30.716Z,78.80
2018-03-24T11:08:58.183Z,78.60
2018-03-24T11:11:25.629Z,78.40
2018-03-24T11:13:53.109Z,78.40
2018-03-24T11:16:20.565Z,78.40
2018-03-24T11:18:48.083Z,77.60
2018-03-24T11:21:15.534Z,77.90
2018-03-24T11:23:43.018Z,78.10
2018-03-24T11:26:10.498Z,77.90
2018-03-24T11:28:37.999Z,77.80
2018-03-24T11:31:05.493Z,78.30
2018-03-24T11:33:32.958Z,78.00
2018-03-24T11:36:00.429Z,77.50
2018-03-24T11:38:27.914Z,77.60
2018-03-24T11:40:56.188Z,75.10
2018-03-24T11:43:24.430Z,75.70
2018-03-24T11:45:51.895Z,75.60
2018-03-24T11:48:19.399Z,75.00
2018-03-24T11:50:46.869Z,74.70
2018-03-24T11:53:14.356Z,75.10
2018-03-24T11:55:41.838Z,75.80
2018-03-24T11:58:09.293Z,74.80
2018-03-24T12:00:36.769Z,74.50
2018-03-24T12:03:04.998Z,74.50
2018-03-24T12:05:32.488Z,74.50
2018-03-24T12:07:59.961Z,74.20
2018-03-24T12:10:28.201Z,73.80
2018-03-24T12:12:56.467Z,74.20
2018-03-24T12:15:23.922Z,74.20
2018-03-24T12:17:51.429Z,74.30
2018-03-24T12:20:18.908Z,74.10
2018-03-24T12:22:46.418Z,73.30
2018-03-24T12:25:14.705Z,73.60
2018-03-24T12:27:42.160Z,73.60
2018-03-24T12:30:09.661Z,73.10
2018-03-24T12:32:37.201Z,73.20
2018-03-24T12:35:04.611Z,73.60
2018-03-24T12:37:32.089Z,73.60
2018-03-24T12:39:59.565Z,72.70
2018-03-24T12:42:27.078Z,71.90
2018-03-24T12:44:54.538Z,71.70
2018-03-24T12:47:22.043Z,72.00
2018-03-24T12:49:50.291Z,71.60
2018-03-24T12:52:17.774Z,71.60
2018-03-24T12:54:45.989Z,71.70
2018-03-24T12:57:13.500Z,71.70
2018-03-24T12:59:41.750Z,71.90
2018-03-24T13:02:09.245Z,71.80
2018-03-24T13:04:37.480Z,69.70
2018-03-24T13:07:04.977Z,70.50
2018-03-24T13:09:32.474Z,70.90
2018-03-24T13:11:59.966Z,69.80
2018-03-24T13:14:27.427Z,70.20
2018-03-24T13:16:54.914Z,69.80
2018-03-24T13:19:23.172Z,69.70
2018-03-24T13:21:50.638Z,69.00
2018-03-24T13:24:18.150Z,68.80
2018-03-24T13:26:45.620Z,69.20
2018-03-24T13:29:13.156Z,68.90
2018-03-24T13:31:40.626Z,67.80
2018-03-24T13:34:08.164Z,68.80
2018-03-24T13:36:35.647Z,68.40
2018-03-24T13:39:03.869Z,67.20
2018-03-24T13:41:32.134Z,67.10
2018-03-24T13:43:59.846Z,67.10
2018-03-24T13:46:27.337Z,66.40
2018-03-24T13:48:54.806Z,66.90
2018-03-24T13:51:23.050Z,67.00
2018-03-24T13:53:50.612Z,66.90
2018-03-24T13:56:18.117Z,67.70
2018-03-24T13:58:45.558Z,66.50
2018-03-24T14:01:13.061Z,67.30
2018-03-24T14:03:40.561Z,66.80
2018-03-24T14:06:08.022Z,65.90
2018-03-24T14:08:35.507Z,64.90
2018-03-24T14:11:02.962Z,65.30
2018-03-24T14:13:30.466Z,65.10
2018-03-24T14:15:58.003Z,64.80
2018-03-24T14:18:26.206Z,65.00
2018-03-24T14:20:53.743Z,65.10
2018-03-24T14:23:21.201Z,64.70
2018-03-24T14:25:48.705Z,64.60
2018-03-24T14:28:16.206Z,64.40
2018-03-24T14:30:43.741Z,64.80
2018-03-24T14:33:11.976Z,65.10
2018-03-24T14:35:39.482Z,65.00
2018-03-24T14:38:06.971Z,64.70
2018-03-24T14:40:34.483Z,65.00
2018-03-24T14:43:02.740Z,66.30
2018-03-24T14:45:30.219Z,65.60
2018-03-24T14:47:58.483Z,65.30
2018-03-24T14:50:25.959Z,65.30
2018-03-24T14:52:54.205Z,66.20
2018-03-24T14:55:21.690Z,66.10
2018-03-24T14:57:49.952Z,65.20
2018-03-24T15:00:17.430Z,65.20
2018-03-24T15:02:45.673Z,64.60
2018-03-24T15:05:13.177Z,64.60
2018-03-24T15:07:40.687Z,64.50
2018-03-24T15:10:08.158Z,65.20
2018-03-24T15:12:35.636Z,66.10
2018-03-24T15:15:03.121Z,66.10
2018-03-24T15:17:30.605Z,65.50
2018-03-24T15:19:58.133Z,65.00
2018-03-24T15:22:25.614Z,65.90
2018-03-24T15:24:53.097Z,66.20
2018-03-24T15:27:20.585Z,66.90
2018-03-24T15:29:59.862Z,68.30
2018-03-24T15:32:48.174Z,67.80
2018-03-24T15:35:27.461Z,68.40
2018-03-24T15:37:54.941Z,68.40
2018-03-24T15:40:23.193Z,68.10
2018-03-24T15:42:50.715Z,68.00
2018-03-24T15:45:18.189Z,68.20
2018-03-24T15:47:45.668Z,68.20
2018-03-24T15:50:13.160Z,68.10
2018-03-24T15:52:41.394Z,68.40
2018-03-24T15:55:08.883Z,68.30
2018-03-24T15:57:36.334Z,68.60
2018-03-24T16:00:03.949Z,68.20
2018-03-24T16:02:31.410Z,68.20
2018-03-24T16:04:58.966Z,68.40
2018-03-24T16:07:26.473Z,67.90
2018-03-24T16:09:53.951Z,67.70
2018-03-24T16:12:21.442Z,67.80
2018-03-24T16:14:48.917Z,68.10
2018-03-24T16:17:16.395Z,68.30
2018-03-24T16:19:43.870Z,68.70
2018-03-24T16:22:12.153Z,70.00
2018-03-24T16:24:39.597Z,69.30
2018-03-24T16:27:07.116Z,69.00
2018-03-24T16:29:34.585Z,69.10
2018-03-24T16:32:02.078Z,69.00
2018-03-24T16:34:30.318Z,69.60
2018-03-24T16:36:58.596Z,70.20
2018-03-24T16:39:26.046Z,70.20
2018-03-24T16:41:53.647Z,70.00
2018-03-24T16:44:21.061Z,70.10
2018-03-24T16:46:48.546Z,70.20
2018-03-24T16:49:16.068Z,70.50
2018-03-24T16:51:43.568Z,70.00
2018-03-24T16:54:11.050Z,70.00
2018-03-24T16:56:39.281Z,70.00
2018-03-24T16:59:06.754Z,69.90
2018-03-24T17:01:34.235Z,70.50
2018-03-24T17:04:01.691Z,70.40
2018-03-24T17:06:29.957Z,70.90
2018-03-24T17:08:58.222Z,71.20
2018-03-24T17:11:27.191Z,71.60
2018-03-24T17:13:54.706Z,71.50
2018-03-24T17:16:22.365Z,71.70
2018-03-24T17:18:49.855Z,71.70
2018-03-24T17:21:17.348Z,71.70
2018-03-24T17:23:44.806Z,71.90
2018-03-24T17:26:12.306Z,72.10
2018-03-24T17:28:39.951Z,72.10
2018-03-24T17:31:07.457Z,72.30
2018-03-24T17:33:34.923Z,72.70
2018-03-24T17:36:02.648Z,72.60
2018-03-24T17:38:30.900Z,73.00
2018-03-24T17:40:58.413Z,72.90
2018-03-24T17:43:25.870Z,73.30
2018-03-24T17:45:53.359Z,73.20
2018-03-24T17:48:20.814Z,73.20
2018-03-24T17:50:48.365Z,73.20
2018-03-24T17:53:15.816Z,73.20
2018-03-24T17:55:44.128Z,73.40
2018-03-24T17:58:11.591Z,73.40
2018-03-24T18:00:39.057Z,73.90
2018-03-24T18:03:06.543Z,73.70
2018-03-24T18:05:34.042Z,74.60
2018-03-24T18:08:01.498Z,73.80
2018-03-24T18:10:28.976Z,73.70
2018-03-24T18:12:57.202Z,73.80
2018-03-24T18:15:24.690Z,73.80
2018-03-24T18:17:52.153Z,73.70
2018-03-24T18:20:19.637Z,73.80
2018-03-24T18:22:47.090Z,74.10
2018-03-24T18:25:15.310Z,74.00
2018-03-24T18:27:42.793Z,74.10
2018-03-24T18:30:10.249Z,74.30
2018-03-24T18:32:37.706Z,74.30
2018-03-24T18:35:05.223Z,74.10
2018-03-24T18:37:32.707Z,74.20
2018-03-24T18:40:00.205Z,74.40
2018-03-24T18:42:28.442Z,74.60
2018-03-24T18:44:55.945Z,74.60
2018-03-24T18:47:23.437Z,74.50
2018-03-24T18:49:50.918Z,74.50
2018-03-24T18:52:18.399Z,74.60
2018-03-24T18:54:45.876Z,74.70
2018-03-24T18:57:13.394Z,74.40
2018-03-24T18:59:40.867Z,74.30
2018-03-24T19:02:08.382Z,74.30
2018-03-24T19:04:35.849Z,74.10
2018-03-24T19:07:03.322Z,74.10
2018-03-24T19:09:30.813Z,74.10
2018-03-24T19:11:58.349Z,74.40
2018-03-24T19:14:25.822Z,74.50
2018-03-24T19:16:53.282Z,74.50
2018-03-24T19:22:11.850Z,74.80
2018-03-24T19:24:39.359Z,75.00
2018-03-24T19:27:06.828Z,75.30
2018-03-24T19:29:35.111Z,74.90
2018-03-24T19:32:02.593Z,74.90
2018-03-24T19:34:30.067Z,75.00
2018-03-24T19:36:58.326Z,75.10
2018-03-24T19:39:25.810Z,75.00
2018-03-24T19:41:54.068Z,74.60
2018-03-24T19:44:21.518Z,74.60
2018-03-24T19:46:49.002Z,74.70
2018-03-24T19:49:16.493Z,74.70
2018-03-24T19:51:43.949Z,74.60
2018-03-24T19:54:11.430Z,74.60
2018-03-24T19:56:38.886Z,74.60
2018-03-24T19:59:06.362Z,74.50
2018-03-24T20:01:33.846Z,74.50
2018-03-24T20:04:01.362Z,74.70
2018-03-24T20:06:28.840Z,75.10
2018-03-24T20:08:56.315Z,75.10
2018-03-24T20:11:24.547Z,75.10
2018-03-24T20:13:52.029Z,75.10
2018-03-24T20:16:19.482Z,75.10
2018-03-24T20:18:46.958Z,75.10
2018-03-24T20:21:14.420Z,75.50
2018-03-24T20:23:41.894Z,75.60
2018-03-24T20:26:09.401Z,75.90
2018-03-24T20:28:36.871Z,76.00
2018-03-24T20:31:04.358Z,76.10
2018-03-24T20:33:31.906Z,76.20
2018-03-24T20:36:00.174Z,76.50
2018-03-24T20:38:27.625Z,76.30
2018-03-24T20:40:55.101Z,76.50
2018-03-24T20:43:22.550Z,76.40
2018-03-24T20:45:50.018Z,76.60
2018-03-24T20:48:17.508Z,76.90
2018-03-24T20:50:44.954Z,76.50
2018-03-24T20:53:12.436Z,76.80
2018-03-24T20:55:39.886Z,76.50
2018-03-24T20:58:07.443Z,76.40
2018-03-24T21:00:34.935Z,76.40
2018-03-24T21:03:02.426Z,76.60
2018-03-24T21:05:29.878Z,77.00
2018-03-24T21:07:58.134Z,77.20
2018-03-24T21:10:25.595Z,77.20
2018-03-24T21:12:53.049Z,77.30
2018-03-24T21:15:20.586Z,77.40
2018-03-24T21:17:48.804Z,77.50
2018-03-24T21:20:17.070Z,77.50
2018-03-24T21:22:44.533Z,77.50
2018-03-24T21:25:11.982Z,77.50
2018-03-24T21:27:39.455Z,77.50
2018-03-24T21:30:07.712Z,78.10
2018-03-24T21:32:35.166Z,78.00
2018-03-24T21:35:02.640Z,78.30
2018-03-24T21:37:30.899Z,78.20
2018-03-24T21:39:58.391Z,78.20
2018-03-24T21:42:26.610Z,78.60
2018-03-24T21:44:54.066Z,78.60
2018-03-24T21:47:21.557Z,78.60
2018-03-24T21:49:49.039Z,78.60
2018-03-24T21:52:17.294Z,78.50
2018-03-24T21:54:44.743Z,78.50
2018-03-24T21:57:12.220Z,78.80
2018-03-24T21:59:40.474Z,78.80
2018-03-24T22:02:07.945Z,78.80
2018-03-24T22:04:35.411Z,78.90
2018-03-24T22:07:03.677Z,78.90
2018-03-24T22:09:31.134Z,78.90
2018-03-24T22:11:58.622Z,78.70
2018-03-24T22:14:26.065Z,78.60
2018-03-24T22:16:53.530Z,78.60
2018-03-24T22:19:21.777Z,78.60
2018-03-24T22:21:49.247Z,78.60
2018-03-24T22:24:17.502Z,78.80
2018-03-24T22:26:45.026Z,78.70
2018-03-24T22:29:12.478Z,78.90
2018-03-24T22:31:39.978Z,79.00
2018-03-24T22:34:07.434Z,78.80
2018-03-24T22:36:35.137Z,78.80
2018-03-24T22:39:02.598Z,78.80
2018-03-24T22:41:30.106Z,78.80
2018-03-24T22:43:57.554Z,78.90
2018-03-24T22:46:25.017Z,79.50
2018-03-24T22:48:52.507Z,79.00
2018-03-24T22:51:19.981Z,79.00
2018-03-24T22:53:47.456Z,78.50
2018-03-24T22:56:14.921Z,78.90
2018-03-24T22:58:42.402Z,78.90
2018-03-24T23:01:10.613Z,78.80
2018-03-24T23:03:38.091Z,78.80
2018-03-24T23:06:06.313Z,78.80
2018-03-24T23:08:33.806Z,78.70
2018-03-24T23:11:02.070Z,79.40
2018-03-24T23:13:29.525Z,78.70
2018-03-24T23:15:57.003Z,78.70
2018-03-24T23:18:24.445Z,78.80
2018-03-24T23:20:52.708Z,79.00
2018-03-24T23:23:20.184Z,79.00
2018-03-24T23:25:47.654Z,79.00
2018-03-24T23:28:15.137Z,79.00
2018-03-24T23:30:42.613Z,78.90
2018-03-24T23:33:10.072Z,78.80
2018-03-24T23:35:37.562Z,78.90
2018-03-24T23:38:05.031Z,79.00
2018-03-24T23:40:32.530Z,78.80
2018-03-24T23:43:00.014Z,78.90
2018-03-24T23:45:27.497Z,78.90
2018-03-24T23:47:54.946Z,78.90
2018-03-24T23:50:22.424Z,78.90
2018-03-24T23:52:50.686Z,78.90
2018-03-24T23:55:18.163Z,78.90
2018-03-24T23:57:45.656Z,78.90
